createdAt,value
2019-02-11T00:01:19.284Z,0.60
2019-02-11T00:03:48.516Z,0.67
2019-02-11T00:06:17.745Z,0.50
2019-02-11T00:08:46.936Z,0.50
2019-02-11T00:11:16.150Z,0.53
2019-02-11T00:13:45.520Z,0.53
2019-02-11T00:16:14.743Z,0.50
2019-02-11T00:18:43.890Z,0.50
2019-02-11T00:21:13.058Z,0.50
2019-02-11T00:23:42.214Z,0.60
2019-02-11T00:26:11.460Z,0.70
2019-02-11T00:28:40.661Z,0.70
2019-02-11T00:31:09.963Z,0.77
2019-02-11T00:33:39.200Z,0.60
2019-02-11T00:36:09.365Z,0.63
2019-02-11T00:38:38.624Z,0.83
2019-02-11T00:41:07.768Z,0.60
2019-02-11T00:43:36.912Z,0.70
2019-02-11T00:46:06.047Z,0.80
2019-02-11T00:48:35.163Z,0.60
2019-02-11T00:51:04.405Z,0.60
2019-02-11T00:53:33.657Z,0.50
2019-02-11T00:56:02.905Z,0.80
2019-02-11T00:58:32.064Z,0.60
2019-02-11T01:01:01.238Z,0.80
2019-02-11T01:03:30.373Z,0.80
2019-02-11T01:05:59.508Z,0.83
2019-02-11T01:08:28.766Z,1.00
2019-02-11T01:10:57.905Z,0.67
2019-02-11T01:13:28.029Z,0.80
2019-02-11T01:15:57.423Z,0.60
2019-02-11T01:18:26.629Z,0.70
2019-02-11T01:20:55.777Z,0.67
2019-02-11T01:23:24.908Z,0.70
2019-02-11T01:25:54.157Z,0.80
2019-02-11T01:28:23.314Z,0.73
2019-02-11T01:30:52.609Z,0.80
2019-02-11T01:33:21.796Z,0.90
2019-02-11T01:35:51.066Z,0.70
2019-02-11T01:38:20.342Z,0.80
2019-02-11T01:40:49.540Z,0.70
2019-02-11T01:43:18.662Z,0.80
2019-02-11T01:45:49.291Z,0.80
2019-02-11T01:48:18.525Z,0.80
2019-02-11T01:50:47.670Z,0.70
2019-02-11T01:53:16.888Z,1.10
2019-02-11T01:55:46.194Z,0.90
2019-02-11T01:58:15.501Z,0.73
2019-02-11T02:00:45.682Z,0.80
2019-02-11T02:03:14.866Z,1.27
2019-02-11T02:05:43.983Z,0.90
2019-02-11T02:08:14.447Z,0.77
2019-02-11T02:10:43.743Z,0.87
2019-02-11T02:13:12.881Z,0.70
2019-02-11T02:15:42.007Z,0.70
2019-02-11T02:18:11.205Z,0.83
2019-02-11T02:20:40.367Z,0.80
2019-02-11T02:23:09.492Z,0.90
2019-02-11T02:25:38.639Z,0.80
2019-02-11T02:28:07.776Z,0.80
2019-02-11T02:30:36.915Z,0.70
2019-02-11T02:33:06.263Z,0.77
2019-02-11T02:35:35.511Z,0.73
2019-02-11T02:38:04.625Z,0.97
2019-02-11T02:40:33.861Z,0.80
2019-02-11T02:43:02.991Z,0.70
2019-02-11T02:45:32.196Z,0.80
2019-02-11T02:48:01.362Z,0.77
2019-02-11T02:50:30.486Z,1.10
2019-02-11T02:52:59.700Z,0.90
2019-02-11T02:55:28.945Z,0.80
2019-02-11T02:57:58.162Z,0.90
2019-02-11T03:00:27.350Z,0.73
2019-02-11T03:02:56.580Z,0.70
2019-02-11T03:05:25.808Z,0.80
2019-02-11T03:07:55.018Z,0.70
2019-02-11T03:10:24.169Z,0.73
2019-02-11T03:12:53.400Z,1.10
2019-02-11T03:15:22.540Z,0.77
2019-02-11T03:17:51.803Z,0.80
2019-02-11T03:20:20.924Z,0.87
2019-02-11T03:22:50.060Z,0.90
2019-02-11T03:25:19.262Z,0.90
2019-02-11T03:27:48.413Z,1.20
2019-02-11T03:30:17.586Z,0.90
2019-02-11T03:32:46.780Z,1.10
2019-02-11T03:35:15.975Z,1.10
2019-02-11T03:37:45.126Z,1.10
2019-02-11T03:40:14.376Z,1.03
2019-02-11T03:42:43.519Z,1.30
2019-02-11T03:45:12.685Z,1.00
2019-02-11T03:47:41.819Z,0.97
2019-02-11T03:50:11.365Z,1.50
2019-02-11T03:52:40.629Z,1.20
2019-02-11T03:55:09.810Z,1.30
2019-02-11T03:57:39.117Z,0.90
2019-02-11T04:00:10.413Z,1.40
2019-02-11T04:02:39.588Z,1.13
2019-02-11T04:05:08.756Z,1.00
2019-02-11T04:07:38.057Z,1.20
2019-02-11T04:10:08.630Z,1.30
2019-02-11T04:12:37.832Z,1.30
2019-02-11T04:15:07.342Z,1.20
2019-02-11T04:17:36.540Z,1.00
2019-02-11T04:20:07.132Z,2.30
2019-02-11T04:22:36.281Z,1.30
2019-02-11T04:25:07.247Z,1.13
2019-02-11T04:27:36.404Z,1.30
2019-02-11T04:30:06.090Z,1.30
2019-02-11T04:32:35.240Z,1.10
2019-02-11T04:35:04.761Z,1.17
2019-02-11T04:37:33.880Z,1.40
2019-02-11T04:40:03.120Z,1.53
2019-02-11T04:42:32.230Z,1.40
2019-02-11T04:45:01.545Z,1.10
2019-02-11T04:47:30.719Z,1.47
2019-02-11T04:49:59.932Z,1.43
2019-02-11T04:52:29.115Z,1.53
2019-02-11T04:54:58.300Z,1.60
2019-02-11T04:57:27.519Z,1.33
2019-02-11T04:59:56.680Z,1.57
2019-02-11T05:02:25.868Z,1.37
2019-02-11T05:04:55.050Z,0.90
2019-02-11T05:07:24.262Z,1.50
2019-02-11T05:09:53.411Z,1.47
2019-02-11T05:12:22.778Z,1.30
2019-02-11T05:14:52.018Z,1.07
2019-02-11T05:17:21.212Z,1.40
2019-02-11T05:19:50.347Z,1.17
2019-02-11T05:22:19.603Z,1.30
2019-02-11T05:24:48.972Z,1.20
2019-02-11T05:27:18.209Z,1.37
2019-02-11T05:29:47.525Z,1.47
2019-02-11T05:32:16.729Z,1.07
2019-02-11T05:34:45.925Z,1.00
2019-02-11T05:37:15.120Z,1.10
2019-02-11T05:39:44.306Z,1.57
2019-02-11T05:42:13.538Z,1.17
2019-02-11T05:44:42.820Z,1.30
2019-02-11T05:47:12.041Z,1.20
2019-02-11T05:49:41.196Z,1.40
2019-02-11T05:52:10.367Z,1.53
2019-02-11T05:54:39.570Z,1.40
2019-02-11T05:57:08.769Z,1.60
2019-02-11T05:59:37.928Z,1.90
2019-02-11T06:02:07.171Z,1.20
2019-02-11T06:04:36.485Z,1.40
2019-02-11T06:07:05.719Z,1.07
2019-02-11T06:09:34.991Z,2.73
2019-02-11T06:12:06.921Z,1.30
2019-02-11T06:14:36.151Z,1.50
2019-02-11T06:17:06.795Z,1.20
2019-02-11T06:19:35.933Z,1.00
2019-02-11T06:22:05.112Z,1.07
2019-02-11T06:24:34.252Z,1.20
2019-02-11T06:27:03.400Z,0.90
2019-02-11T06:29:32.537Z,0.90
2019-02-11T06:32:01.720Z,1.10
2019-02-11T06:34:30.941Z,1.37
2019-02-11T06:37:00.193Z,1.10
2019-02-11T06:39:29.414Z,1.10
2019-02-11T06:41:58.550Z,1.13
2019-02-11T06:44:27.765Z,1.07
2019-02-11T06:46:56.964Z,1.10
2019-02-11T06:49:26.951Z,1.17
2019-02-11T06:51:56.132Z,1.00
2019-02-11T06:54:25.304Z,0.90
2019-02-11T06:56:54.574Z,1.00
2019-02-11T06:59:23.798Z,1.40
2019-02-11T07:01:53.060Z,1.10
2019-02-11T07:04:22.333Z,1.20
2019-02-11T07:06:51.503Z,1.30
2019-02-11T07:09:20.720Z,1.73
2019-02-11T07:11:49.876Z,1.10
2019-02-11T07:14:19.128Z,1.60
2019-02-11T07:16:48.384Z,1.00
2019-02-11T07:19:17.711Z,1.30
2019-02-11T07:21:46.860Z,1.10
2019-02-11T07:24:16.072Z,1.53
2019-02-11T07:26:45.504Z,1.20
2019-02-11T07:29:14.723Z,1.07
2019-02-11T07:31:43.894Z,1.57
2019-02-11T07:34:13.036Z,0.90
2019-02-11T07:36:43.420Z,1.60
2019-02-11T07:39:12.607Z,1.33
2019-02-11T07:42:04.756Z,1.20
2019-02-11T07:44:44.796Z,2.13
2019-02-11T07:47:14.008Z,1.40
2019-02-11T07:49:43.230Z,1.57
2019-02-11T07:52:12.484Z,1.10
2019-02-11T07:54:41.672Z,1.00
2019-02-11T07:57:10.841Z,1.57
2019-02-11T07:59:39.983Z,1.20
2019-02-11T08:02:09.189Z,1.70
2019-02-11T08:04:38.465Z,1.50
2019-02-11T08:07:07.800Z,2.77
2019-02-11T08:09:37.022Z,1.67
2019-02-11T08:12:06.185Z,1.73
2019-02-11T08:14:35.411Z,1.60
2019-02-11T08:17:04.573Z,1.40
2019-02-11T08:19:33.858Z,1.63
2019-02-11T08:22:03.029Z,1.80
2019-02-11T08:24:32.293Z,1.23
2019-02-11T08:27:01.478Z,1.13
2019-02-11T08:29:30.671Z,1.17
2019-02-11T08:31:59.982Z,1.47
2019-02-11T08:34:29.251Z,1.37
2019-02-11T08:36:58.411Z,1.20
2019-02-11T08:39:27.571Z,1.13
2019-02-11T08:41:56.748Z,1.27
2019-02-11T08:44:26.004Z,1.30
2019-02-11T08:46:55.250Z,1.37
2019-02-11T08:49:24.428Z,2.50
2019-02-11T08:51:53.757Z,1.00
2019-02-11T08:54:23.002Z,1.23
2019-02-11T08:56:52.216Z,1.23
2019-02-11T08:59:21.368Z,1.23
2019-02-11T09:01:50.605Z,1.17
2019-02-11T09:04:19.936Z,1.30
2019-02-11T09:06:49.093Z,1.20
2019-02-11T09:09:18.789Z,0.93
2019-02-11T09:11:48.051Z,1.20
2019-02-11T09:14:18.357Z,1.30
2019-02-11T09:16:47.607Z,1.20
2019-02-11T09:19:16.857Z,1.60
2019-02-11T09:21:46.128Z,1.00
2019-02-11T09:24:15.287Z,1.00
2019-02-11T09:26:44.544Z,1.30
2019-02-11T09:29:13.713Z,1.00
2019-02-11T09:31:42.970Z,1.33
2019-02-11T09:34:12.110Z,1.10
2019-02-11T09:36:41.278Z,1.53
2019-02-11T09:39:10.624Z,1.10
2019-02-11T09:41:40.097Z,0.97
2019-02-11T09:44:09.373Z,1.43
2019-02-11T09:46:38.529Z,1.07
2019-02-11T09:49:07.710Z,1.83
2019-02-11T09:51:41.031Z,1.07
2019-02-11T09:54:10.272Z,1.07
2019-02-11T09:56:39.828Z,1.10
2019-02-11T09:59:08.995Z,0.97
2019-02-11T10:01:38.605Z,1.30
2019-02-11T10:04:07.768Z,1.30
2019-02-11T10:06:37.020Z,0.90
2019-02-11T10:09:06.841Z,1.53
2019-02-11T10:11:36.117Z,1.13
2019-02-11T10:14:05.295Z,1.57
2019-02-11T10:16:34.634Z,0.90
2019-02-11T10:19:03.828Z,1.23
2019-02-11T10:21:33.964Z,1.13
2019-02-11T10:24:03.412Z,0.97
2019-02-11T10:26:32.765Z,1.10
2019-02-11T10:29:01.979Z,1.10
2019-02-11T10:31:31.220Z,0.80
2019-02-11T10:34:00.350Z,1.47
2019-02-11T10:36:29.636Z,1.47
2019-02-11T10:38:58.948Z,1.20
2019-02-11T10:41:28.119Z,1.20
2019-02-11T10:43:57.296Z,1.40
2019-02-11T10:46:26.682Z,1.17
2019-02-11T10:48:55.936Z,1.10
2019-02-11T10:51:25.188Z,1.20
2019-02-11T10:53:54.409Z,1.27
2019-02-11T10:56:23.612Z,1.73
2019-02-11T10:58:52.781Z,1.20
2019-02-11T11:01:23.735Z,1.00
2019-02-11T11:03:52.893Z,1.37
2019-02-11T11:06:22.144Z,0.87
2019-02-11T11:08:51.295Z,1.40
2019-02-11T11:11:21.108Z,1.40
2019-02-11T11:13:50.361Z,1.00
2019-02-11T11:16:19.583Z,1.67
2019-02-11T11:18:48.898Z,1.80
2019-02-11T11:21:18.733Z,1.47
2019-02-11T11:23:47.961Z,1.90
2019-02-11T11:26:17.217Z,1.47
2019-02-11T11:28:46.436Z,1.77
2019-02-11T11:31:15.627Z,1.13
2019-02-11T11:33:44.821Z,1.47
2019-02-11T11:36:14.008Z,1.57
2019-02-11T11:38:43.263Z,1.63
2019-02-11T11:41:12.426Z,1.37
2019-02-11T11:43:41.622Z,1.83
2019-02-11T11:46:10.888Z,1.33
2019-02-11T11:48:40.133Z,1.17
2019-02-11T11:51:09.335Z,1.20
2019-02-11T11:53:38.633Z,1.80
2019-02-11T11:56:07.920Z,1.60
2019-02-11T11:58:37.266Z,1.67
2019-02-11T12:01:07.091Z,1.33
2019-02-11T12:03:37.954Z,1.23
2019-02-11T12:06:07.121Z,1.37
2019-02-11T12:08:36.279Z,1.20
2019-02-11T12:11:05.549Z,1.20
2019-02-11T12:13:34.744Z,1.93
2019-02-11T12:16:04.091Z,1.93
2019-02-11T12:18:33.259Z,1.50
2019-02-11T12:21:02.550Z,1.90
2019-02-11T12:23:31.878Z,1.27
2019-02-11T12:26:01.156Z,1.90
2019-02-11T12:28:30.603Z,2.10
2019-02-11T12:30:59.818Z,1.13
2019-02-11T12:33:29.202Z,1.33
2019-02-11T12:35:58.394Z,1.10
2019-02-11T12:38:27.653Z,1.63
2019-02-11T12:40:56.881Z,1.43
2019-02-11T12:43:26.234Z,2.27
2019-02-11T12:45:55.437Z,1.40
2019-02-11T12:48:24.573Z,1.30
2019-02-11T12:50:53.784Z,1.57
2019-02-11T12:53:23.242Z,1.90
2019-02-11T12:55:52.648Z,1.50
2019-02-11T12:58:21.954Z,1.97
2019-02-11T13:00:51.159Z,2.00
2019-02-11T13:03:20.381Z,1.20
2019-02-11T13:05:49.606Z,1.20
2019-02-11T13:08:18.875Z,1.67
2019-02-11T13:10:48.108Z,1.67
2019-02-11T13:13:17.446Z,1.60
2019-02-11T13:15:59.946Z,1.40
2019-02-11T13:18:17.678Z,1.20
2019-02-11T13:20:46.953Z,1.53
2019-02-11T13:23:16.147Z,2.70
2019-02-11T13:25:45.419Z,1.50
2019-02-11T13:28:14.628Z,1.20
2019-02-11T13:30:43.947Z,1.57
2019-02-11T13:33:15.015Z,1.70
2019-02-11T13:35:44.328Z,1.83
2019-02-11T13:38:13.812Z,1.77
2019-02-11T13:40:43.194Z,1.43
2019-02-11T13:43:14.062Z,1.70
2019-02-11T13:45:43.357Z,1.60
2019-02-11T13:48:12.609Z,1.67
2019-02-11T13:50:42.362Z,1.53
2019-02-11T13:53:11.592Z,1.37
2019-02-11T13:55:40.923Z,1.90
2019-02-11T13:58:10.509Z,1.10
2019-02-11T14:00:41.211Z,1.57
2019-02-11T14:03:10.506Z,1.20
2019-02-11T14:05:40.965Z,1.70
2019-02-11T14:08:10.235Z,1.10
2019-02-11T14:10:39.488Z,1.50
2019-02-11T14:13:09.017Z,1.47
2019-02-11T14:15:38.331Z,1.53
2019-02-11T14:18:13.998Z,1.60
2019-02-11T14:20:41.064Z,1.57
2019-02-11T14:23:10.583Z,1.30
2019-02-11T14:25:45.176Z,1.50
2019-02-11T14:28:11.178Z,1.50
2019-02-11T14:30:40.502Z,1.37
2019-02-11T14:33:10.280Z,1.50
2019-02-11T14:35:39.659Z,1.30
2019-02-11T14:38:09.041Z,1.33
2019-02-11T14:40:38.329Z,1.10
2019-02-11T14:43:07.646Z,1.40
2019-02-11T14:45:37.001Z,1.30
2019-02-11T14:48:06.330Z,2.50
2019-02-11T14:50:35.606Z,1.30
2019-02-11T14:53:04.756Z,1.50
2019-02-11T14:55:35.312Z,1.13
2019-02-11T14:58:04.528Z,1.03
2019-02-11T15:00:33.843Z,1.10
2019-02-11T15:03:03.054Z,0.90
2019-02-11T15:05:32.551Z,1.27
2019-02-11T15:08:01.708Z,1.10
2019-02-11T15:10:30.937Z,1.37
2019-02-11T15:13:01.739Z,1.90
2019-02-11T15:15:32.197Z,1.10
2019-02-11T15:18:01.440Z,1.50
2019-02-11T15:20:30.616Z,1.80
2019-02-11T15:22:59.860Z,2.10
2019-02-11T15:25:29.179Z,1.57
2019-02-11T15:27:58.443Z,1.27
2019-02-11T15:30:27.709Z,1.83
2019-02-11T15:32:56.972Z,1.43
2019-02-11T15:35:26.317Z,1.33
2019-02-11T15:37:55.461Z,1.70
2019-02-11T15:40:24.735Z,1.30
2019-02-11T15:42:53.904Z,1.10
2019-02-11T15:45:23.176Z,1.00
2019-02-11T15:47:52.582Z,1.37
2019-02-11T15:50:21.829Z,1.00
2019-02-11T15:52:51.229Z,4.63
2019-02-11T15:55:20.605Z,2.33
2019-02-11T15:57:49.860Z,2.00
2019-02-11T16:00:20.557Z,2.37
2019-02-11T16:02:51.609Z,1.60
2019-02-11T16:05:20.913Z,1.00
2019-02-11T16:07:50.127Z,1.13
2019-02-11T16:10:21.553Z,1.30
2019-02-11T16:12:50.760Z,1.60
2019-02-11T16:15:20.003Z,1.30
2019-02-11T16:17:49.287Z,1.30
2019-02-11T16:20:18.615Z,1.10
2019-02-11T16:22:47.896Z,1.13
2019-02-11T16:25:17.261Z,1.23
2019-02-11T16:27:46.522Z,1.07
2019-02-11T16:30:17.462Z,1.83
2019-02-11T16:32:46.762Z,1.33
2019-02-11T16:35:16.599Z,1.00
2019-02-11T16:37:46.171Z,2.87
2019-02-11T16:40:17.864Z,1.73
2019-02-11T16:42:46.997Z,1.20
2019-02-11T16:45:18.494Z,1.30
2019-02-11T16:47:47.348Z,1.47
2019-02-11T16:50:16.594Z,1.83
2019-02-11T16:52:45.926Z,1.93
2019-02-11T16:55:15.181Z,1.47
2019-02-11T16:57:44.439Z,1.30
2019-02-11T17:00:15.519Z,1.30
2019-02-11T17:02:44.783Z,1.43
2019-02-11T17:05:14.269Z,1.33
2019-02-11T17:07:43.560Z,1.43
2019-02-11T17:10:13.111Z,1.67
2019-02-11T17:12:42.517Z,1.70
2019-02-11T17:15:13.591Z,1.60
2019-02-11T17:17:42.824Z,1.70
2019-02-11T17:20:12.592Z,1.73
2019-02-11T17:22:41.874Z,1.53
2019-02-11T17:25:11.321Z,1.70
2019-02-11T17:27:40.466Z,2.03
2019-02-11T17:30:15.754Z,1.63
2019-02-11T17:32:45.031Z,1.93
2019-02-11T17:35:14.265Z,1.77
2019-02-11T17:37:43.515Z,1.60
2019-02-11T17:40:13.747Z,1.77
2019-02-11T17:42:42.881Z,1.93
2019-02-11T17:45:14.720Z,2.47
2019-02-11T17:47:44.003Z,2.27
2019-02-11T17:50:13.396Z,2.10
2019-02-11T17:52:42.717Z,2.03
2019-02-11T17:55:14.044Z,1.60
2019-02-11T17:57:43.302Z,2.07
2019-02-11T18:00:23.224Z,1.80
2019-02-11T18:02:52.579Z,1.60
2019-02-11T18:05:21.836Z,1.60
2019-02-11T18:07:51.148Z,1.60
2019-02-11T18:10:20.416Z,1.50
2019-02-11T18:12:49.677Z,1.33
2019-02-11T18:15:18.961Z,2.10
2019-02-11T18:17:48.338Z,1.63
2019-02-11T18:20:17.482Z,1.77
2019-02-11T18:22:46.940Z,1.70
2019-02-11T18:25:16.503Z,1.73
2019-02-11T18:27:45.862Z,1.87
2019-02-11T18:30:16.812Z,1.67
2019-02-11T18:32:45.995Z,1.83
2019-02-11T18:35:15.297Z,1.73
2019-02-11T18:37:44.649Z,1.80
2019-02-11T18:40:14.220Z,1.80
2019-02-11T18:42:43.421Z,1.90
2019-02-11T18:45:13.630Z,2.93
2019-02-11T18:47:42.943Z,3.30
2019-02-11T18:50:13.016Z,2.30
2019-02-11T18:52:42.294Z,2.00
2019-02-11T18:55:12.409Z,1.77
2019-02-11T18:57:43.584Z,1.57
2019-02-11T19:00:15.198Z,1.90
2019-02-11T19:02:44.522Z,1.93
2019-02-11T19:05:14.501Z,2.00
2019-02-11T19:07:43.763Z,1.87
2019-02-11T19:10:14.659Z,3.13
2019-02-11T19:12:43.874Z,2.10
2019-02-11T19:15:13.950Z,1.90
2019-02-11T19:17:43.189Z,2.20
2019-02-11T19:20:13.397Z,2.30
2019-02-11T19:22:42.652Z,1.70
2019-02-11T19:25:12.256Z,1.93
2019-02-11T19:27:41.673Z,2.03
2019-02-11T19:30:20.945Z,2.90
2019-02-11T19:32:50.463Z,2.10
2019-02-11T19:35:19.694Z,1.80
2019-02-11T19:37:48.975Z,1.83
2019-02-11T19:40:18.320Z,1.97
2019-02-11T19:42:47.614Z,2.30
2019-02-11T19:45:18.081Z,1.70
2019-02-11T19:47:47.400Z,1.90
2019-02-11T19:50:18.368Z,2.30
2019-02-11T19:52:47.685Z,1.57
2019-02-11T19:55:18.665Z,1.90
2019-02-11T19:57:48.044Z,1.87
2019-02-11T20:00:19.772Z,2.43
2019-02-11T20:02:49.465Z,2.50
2019-02-11T20:05:18.728Z,2.03
2019-02-11T20:07:48.215Z,1.90
2019-02-11T20:10:18.096Z,2.30
2019-02-11T20:12:47.365Z,2.00
2019-02-11T20:15:18.452Z,2.17
2019-02-11T20:17:47.809Z,2.80
2019-02-11T20:20:18.979Z,2.80
2019-02-11T20:22:48.289Z,2.40
2019-02-11T20:25:17.572Z,2.40
2019-02-11T20:27:46.959Z,2.60
2019-02-11T20:30:18.066Z,2.57
2019-02-11T20:32:47.304Z,1.97
2019-02-11T20:35:16.890Z,2.80
2019-02-11T20:37:46.102Z,2.53
2019-02-11T20:40:17.423Z,2.00
2019-02-11T20:42:46.622Z,2.43
2019-02-11T20:45:18.595Z,2.40
2019-02-11T20:47:47.857Z,2.60
2019-02-11T20:50:17.129Z,1.77
2019-02-11T20:52:47.404Z,1.97
2019-02-11T20:55:16.579Z,2.40
2019-02-11T20:57:45.956Z,2.27
2019-02-11T21:00:18.076Z,1.73
2019-02-11T21:02:47.542Z,1.77
2019-02-11T21:05:17.100Z,1.60
2019-02-11T21:07:46.443Z,1.73
2019-02-11T21:10:16.665Z,2.10
2019-02-11T21:12:46.019Z,2.10
2019-02-11T21:15:15.939Z,1.87
2019-02-11T21:17:45.188Z,1.40
2019-02-11T21:20:20.038Z,1.70
2019-02-11T21:22:49.328Z,1.80
2019-02-11T21:25:18.532Z,2.20
2019-02-11T21:27:47.702Z,2.10
2019-02-11T21:30:16.980Z,1.80
2019-02-11T21:32:46.149Z,1.80
2019-02-11T21:35:15.402Z,1.50
2019-02-11T21:37:44.558Z,1.70
2019-02-11T21:40:13.812Z,1.80
2019-02-11T21:42:44.552Z,1.73
2019-02-11T21:45:14.700Z,1.70
2019-02-11T21:47:44.170Z,2.30
2019-02-11T21:50:14.409Z,2.23
2019-02-11T21:52:43.661Z,2.47
2019-02-11T21:55:13.516Z,1.87
2019-02-11T21:57:42.811Z,2.27
2019-02-11T22:00:14.619Z,2.57
2019-02-11T22:02:43.934Z,2.40
2019-02-11T22:05:13.135Z,2.33
2019-02-11T22:07:42.370Z,2.57
2019-02-11T22:10:13.439Z,2.20
2019-02-11T22:12:42.722Z,2.03
2019-02-11T22:15:14.098Z,1.50
2019-02-11T22:17:43.246Z,2.00
2019-02-11T22:20:14.457Z,2.20
2019-02-11T22:22:44.231Z,2.23
2019-02-11T22:25:13.705Z,2.30
2019-02-11T22:27:42.883Z,2.60
2019-02-11T22:30:14.385Z,3.07
2019-02-11T22:32:43.521Z,1.40
2019-02-11T22:35:12.714Z,1.57
2019-02-11T22:37:41.940Z,1.97
2019-02-11T22:40:12.207Z,2.10
2019-02-11T22:42:41.372Z,1.90
2019-02-11T22:45:12.963Z,1.70
2019-02-11T22:47:42.110Z,2.17
2019-02-11T22:50:11.942Z,1.60
2019-02-11T22:52:41.200Z,1.70
2019-02-11T22:55:10.654Z,2.30
2019-02-11T22:57:39.941Z,1.80
2019-02-11T23:00:44.022Z,1.67
2019-02-11T23:03:14.558Z,2.00
2019-02-11T23:05:44.096Z,2.43
2019-02-11T23:08:13.348Z,1.97
2019-02-11T23:10:42.735Z,1.77
2019-02-11T23:13:11.944Z,2.10
2019-02-11T23:15:41.083Z,2.40
2019-02-11T23:18:13.448Z,3.10
2019-02-11T23:20:51.530Z,1.67
2019-02-11T23:23:15.472Z,2.10
2019-02-11T23:25:44.621Z,2.20
2019-02-11T23:28:13.908Z,2.10
2019-02-11T23:30:43.277Z,3.13
2019-02-11T23:33:12.523Z,2.17
2019-02-11T23:35:41.633Z,2.20
2019-02-11T23:38:10.876Z,2.50
2019-02-11T23:40:40.088Z,2.67
2019-02-11T23:43:09.264Z,3.50
2019-02-11T23:45:38.373Z,2.17
2019-02-11T23:48:07.673Z,2.50
2019-02-11T23:50:36.953Z,2.40
2019-02-11T23:53:06.084Z,3.43
2019-02-11T23:55:35.251Z,2.63
2019-02-11T23:58:04.456Z,2.20
